sensor_id;sensor_type;location;lat;lon;timestamp;P1;durP1;ratioP1;P2;durP2;ratioP2
19903;SDS011;10114;50.970;4.962;2022-09-09T00:02:15;5.57;;;2.30;;
19903;SDS011;10114;50.970;4.962;2022-09-09T00:04:42;9.38;;;3.30;;
19903;SDS011;10114;50.970;4.962;2022-09-09T00:07:18;8.60;;;3.15;;
19903;SDS011;10114;50.970;4.962;2022-09-09T00:09:51;7.70;;;2.58;;
19903;SDS011;10114;50.970;4.962;2022-09-09T00:12:25;7.45;;;2.42;;
19903;SDS011;10114;50.970;4.962;2022-09-09T00:14:54;7.57;;;2.58;;
19903;SDS011;10114;50.970;4.962;2022-09-09T00:19:58;7.85;;;2.40;;
19903;SDS011;10114;50.970;4.962;2022-09-09T00:22:27;7.00;;;2.00;;
19903;SDS011;10114;50.970;4.962;2022-09-09T00:24:54;7.07;;;2.13;;
19903;SDS011;10114;50.970;4.962;2022-09-09T00:30:19;4.88;;;1.80;;
19903;SDS011;10114;50.970;4.962;2022-09-09T00:32:47;6.82;;;2.30;;
19903;SDS011;10114;50.970;4.962;2022-09-09T00:35:16;5.03;;;1.92;;
19903;SDS011;10114;50.970;4.962;2022-09-09T00:37:43;5.07;;;2.17;;
19903;SDS011;10114;50.970;4.962;2022-09-09T00:40:18;8.63;;;2.05;;
19903;SDS011;10114;50.970;4.962;2022-09-09T00:42:44;4.55;;;1.75;;
19903;SDS011;10114;50.970;4.962;2022-09-09T00:47:49;10.35;;;2.25;;
19903;SDS011;10114;50.970;4.962;2022-09-09T00:50:40;8.50;;;2.10;;
19903;SDS011;10114;50.970;4.962;2022-09-09T00:56:00;7.85;;;2.30;;
19903;SDS011;10114;50.970;4.962;2022-09-09T00:58:30;6.22;;;2.13;;
19903;SDS011;10114;50.970;4.962;2022-09-09T01:00:57;6.53;;;1.73;;
19903;SDS011;10114;50.970;4.962;2022-09-09T01:03:33;3.80;;;1.60;;
19903;SDS011;10114;50.970;4.962;2022-09-09T01:11:24;5.88;;;2.05;;
19903;SDS011;10114;50.970;4.962;2022-09-09T01:14:00;7.00;;;1.75;;
19903;SDS011;10114;50.970;4.962;2022-09-09T01:16:28;8.43;;;2.13;;
19903;SDS011;10114;50.970;4.962;2022-09-09T01:18:54;5.05;;;1.70;;
19903;SDS011;10114;50.970;4.962;2022-09-09T01:21:25;4.30;;;1.42;;
19903;SDS011;10114;50.970;4.962;2022-09-09T01:26:37;6.13;;;1.38;;
19903;SDS011;10114;50.970;4.962;2022-09-09T01:29:08;5.40;;;1.80;;
19903;SDS011;10114;50.970;4.962;2022-09-09T01:31:39;6.45;;;1.48;;
19903;SDS011;10114;50.970;4.962;2022-09-09T01:34:13;8.18;;;1.80;;
19903;SDS011;10114;50.970;4.962;2022-09-09T01:36:43;5.45;;;1.70;;
19903;SDS011;10114;50.970;4.962;2022-09-09T01:39:10;8.20;;;1.98;;
19903;SDS011;10114;50.970;4.962;2022-09-09T01:41:37;6.90;;;1.70;;
19903;SDS011;10114;50.970;4.962;2022-09-09T01:44:03;10.40;;;2.17;;
19903;SDS011;10114;50.970;4.962;2022-09-09T01:46:29;8.93;;;1.73;;
19903;SDS011;10114;50.970;4.962;2022-09-09T01:48:55;7.32;;;2.03;;
19903;SDS011;10114;50.970;4.962;2022-09-09T01:51:22;10.05;;;2.20;;
19903;SDS011;10114;50.970;4.962;2022-09-09T01:53:48;10.07;;;1.80;;
19903;SDS011;10114;50.970;4.962;2022-09-09T02:03:35;8.32;;;1.92;;
19903;SDS011;10114;50.970;4.962;2022-09-09T02:08:45;14.52;;;2.30;;
19903;SDS011;10114;50.970;4.962;2022-09-09T02:11:19;8.82;;;2.30;;
19903;SDS011;10114;50.970;4.962;2022-09-09T02:13:46;8.18;;;2.15;;
19903;SDS011;10114;50.970;4.962;2022-09-09T02:21:07;10.40;;;2.22;;
19903;SDS011;10114;50.970;4.962;2022-09-09T02:23:37;10.80;;;3.03;;
19903;SDS011;10114;50.970;4.962;2022-09-09T02:26:04;8.57;;;2.25;;
19903;SDS011;10114;50.970;4.962;2022-09-09T02:28:32;14.55;;;2.83;;
19903;SDS011;10114;50.970;4.962;2022-09-09T02:30:59;6.10;;;2.03;;
19903;SDS011;10114;50.970;4.962;2022-09-09T02:33:27;9.85;;;2.38;;
19903;SDS011;10114;50.970;4.962;2022-09-09T02:35:54;7.70;;;2.38;;
19903;SDS011;10114;50.970;4.962;2022-09-09T02:38:26;15.68;;;2.50;;
19903;SDS011;10114;50.970;4.962;2022-09-09T02:40:54;9.30;;;2.20;;
19903;SDS011;10114;50.970;4.962;2022-09-09T02:43:20;17.85;;;3.33;;
19903;SDS011;10114;50.970;4.962;2022-09-09T02:48:27;9.20;;;2.70;;
19903;SDS011;10114;50.970;4.962;2022-09-09T02:51:10;11.15;;;2.50;;
19903;SDS011;10114;50.970;4.962;2022-09-09T02:56:13;8.85;;;2.83;;
19903;SDS011;10114;50.970;4.962;2022-09-09T02:58:40;8.90;;;2.85;;
19903;SDS011;10114;50.970;4.962;2022-09-09T03:01:07;9.20;;;2.55;;
19903;SDS011;10114;50.970;4.962;2022-09-09T03:03:33;10.30;;;2.40;;
19903;SDS011;10114;50.970;4.962;2022-09-09T03:06:00;9.75;;;2.80;;
19903;SDS011;10114;50.970;4.962;2022-09-09T03:08:26;12.80;;;2.92;;
19903;SDS011;10114;50.970;4.962;2022-09-09T03:10:53;7.90;;;2.47;;
19903;SDS011;10114;50.970;4.962;2022-09-09T03:13:20;11.95;;;2.58;;
19903;SDS011;10114;50.970;4.962;2022-09-09T03:15:47;10.68;;;2.58;;
19903;SDS011;10114;50.970;4.962;2022-09-09T03:18:13;13.27;;;2.83;;
19903;SDS011;10114;50.970;4.962;2022-09-09T03:20:39;14.00;;;2.42;;
19903;SDS011;10114;50.970;4.962;2022-09-09T03:23:07;12.82;;;3.03;;
19903;SDS011;10114;50.970;4.962;2022-09-09T03:25:33;8.38;;;2.75;;
19903;SDS011;10114;50.970;4.962;2022-09-09T03:28:00;12.20;;;3.08;;
19903;SDS011;10114;50.970;4.962;2022-09-09T03:30:26;12.65;;;2.50;;
19903;SDS011;10114;50.970;4.962;2022-09-09T03:32:53;10.10;;;2.67;;
19903;SDS011;10114;50.970;4.962;2022-09-09T03:35:20;9.50;;;2.53;;
19903;SDS011;10114;50.970;4.962;2022-09-09T03:37:46;14.90;;;2.80;;
19903;SDS011;10114;50.970;4.962;2022-09-09T03:40:12;8.57;;;2.22;;
19903;SDS011;10114;50.970;4.962;2022-09-09T03:42:39;9.43;;;2.55;;
19903;SDS011;10114;50.970;4.962;2022-09-09T03:45:06;12.68;;;3.08;;
19903;SDS011;10114;50.970;4.962;2022-09-09T03:47:34;10.50;;;2.78;;
19903;SDS011;10114;50.970;4.962;2022-09-09T03:50:00;7.40;;;2.47;;
19903;SDS011;10114;50.970;4.962;2022-09-09T03:52:26;9.70;;;2.53;;
19903;SDS011;10114;50.970;4.962;2022-09-09T03:54:52;10.30;;;2.72;;
19903;SDS011;10114;50.970;4.962;2022-09-09T03:57:19;12.07;;;2.85;;
19903;SDS011;10114;50.970;4.962;2022-09-09T03:59:46;11.93;;;2.42;;
19903;SDS011;10114;50.970;4.962;2022-09-09T04:02:12;9.18;;;2.80;;
19903;SDS011;10114;50.970;4.962;2022-09-09T04:04:38;12.88;;;2.85;;
19903;SDS011;10114;50.970;4.962;2022-09-09T04:07:04;13.35;;;2.50;;
19903;SDS011;10114;50.970;4.962;2022-09-09T04:09:31;9.43;;;2.05;;
19903;SDS011;10114;50.970;4.962;2022-09-09T04:11:57;12.73;;;2.58;;
19903;SDS011;10114;50.970;4.962;2022-09-09T04:14:24;15.07;;;4.07;;
19903;SDS011;10114;50.970;4.962;2022-09-09T04:16:52;6.90;;;2.88;;
19903;SDS011;10114;50.970;4.962;2022-09-09T04:19:18;12.55;;;3.05;;
19903;SDS011;10114;50.970;4.962;2022-09-09T04:21:44;11.38;;;2.65;;
19903;SDS011;10114;50.970;4.962;2022-09-09T04:24:10;10.05;;;2.42;;
19903;SDS011;10114;50.970;4.962;2022-09-09T04:26:36;10.70;;;3.05;;
19903;SDS011;10114;50.970;4.962;2022-09-09T04:29:03;8.55;;;2.50;;
19903;SDS011;10114;50.970;4.962;2022-09-09T04:31:30;10.15;;;2.58;;
19903;SDS011;10114;50.970;4.962;2022-09-09T04:33:56;9.80;;;2.30;;
19903;SDS011;10114;50.970;4.962;2022-09-09T04:36:22;12.23;;;2.42;;
19903;SDS011;10114;50.970;4.962;2022-09-09T04:38:48;8.88;;;2.50;;
19903;SDS011;10114;50.970;4.962;2022-09-09T04:41:14;12.00;;;2.55;;
19903;SDS011;10114;50.970;4.962;2022-09-09T04:43:41;10.93;;;2.40;;
19903;SDS011;10114;50.970;4.962;2022-09-09T04:46:08;8.45;;;2.17;;
19903;SDS011;10114;50.970;4.962;2022-09-09T04:48:34;12.57;;;2.97;;
19903;SDS011;10114;50.970;4.962;2022-09-09T04:51:02;9.25;;;2.20;;
19903;SDS011;10114;50.970;4.962;2022-09-09T04:53:29;14.98;;;2.72;;
19903;SDS011;10114;50.970;4.962;2022-09-09T04:56:05;9.45;;;2.35;;
19903;SDS011;10114;50.970;4.962;2022-09-09T04:58:32;10.63;;;2.40;;
19903;SDS011;10114;50.970;4.962;2022-09-09T05:01:14;12.63;;;2.72;;
19903;SDS011;10114;50.970;4.962;2022-09-09T05:03:42;14.63;;;3.78;;
19903;SDS011;10114;50.970;4.962;2022-09-09T05:06:11;12.67;;;3.27;;
19903;SDS011;10114;50.970;4.962;2022-09-09T05:08:38;12.95;;;2.83;;
19903;SDS011;10114;50.970;4.962;2022-09-09T05:11:12;10.85;;;2.45;;
19903;SDS011;10114;50.970;4.962;2022-09-09T05:13:38;18.73;;;3.30;;
19903;SDS011;10114;50.970;4.962;2022-09-09T05:16:05;14.75;;;2.78;;
19903;SDS011;10114;50.970;4.962;2022-09-09T05:18:31;13.13;;;2.95;;
19903;SDS011;10114;50.970;4.962;2022-09-09T05:21:00;9.23;;;2.75;;
19903;SDS011;10114;50.970;4.962;2022-09-09T05:23:26;11.80;;;2.92;;
19903;SDS011;10114;50.970;4.962;2022-09-09T05:25:59;15.52;;;2.83;;
19903;SDS011;10114;50.970;4.962;2022-09-09T05:28:25;17.60;;;3.38;;
19903;SDS011;10114;50.970;4.962;2022-09-09T05:30:55;10.65;;;2.80;;
19903;SDS011;10114;50.970;4.962;2022-09-09T05:33:22;13.32;;;2.80;;
19903;SDS011;10114;50.970;4.962;2022-09-09T05:35:48;12.13;;;2.70;;
19903;SDS011;10114;50.970;4.962;2022-09-09T05:38:21;16.45;;;3.00;;
19903;SDS011;10114;50.970;4.962;2022-09-09T05:40:50;16.70;;;3.03;;
19903;SDS011;10114;50.970;4.962;2022-09-09T05:43:17;10.70;;;2.63;;
19903;SDS011;10114;50.970;4.962;2022-09-09T05:45:43;10.98;;;2.65;;
19903;SDS011;10114;50.970;4.962;2022-09-09T05:48:10;14.73;;;3.92;;
19903;SDS011;10114;50.970;4.962;2022-09-09T05:50:36;14.80;;;3.00;;
19903;SDS011;10114;50.970;4.962;2022-09-09T05:53:02;13.15;;;2.65;;
19903;SDS011;10114;50.970;4.962;2022-09-09T05:55:28;8.43;;;2.47;;
19903;SDS011;10114;50.970;4.962;2022-09-09T05:57:54;12.80;;;2.38;;
19903;SDS011;10114;50.970;4.962;2022-09-09T06:00:20;10.32;;;2.10;;
19903;SDS011;10114;50.970;4.962;2022-09-09T06:02:50;9.57;;;2.42;;
19903;SDS011;10114;50.970;4.962;2022-09-09T06:05:17;12.02;;;2.70;;
19903;SDS011;10114;50.970;4.962;2022-09-09T06:07:43;10.20;;;2.35;;
19903;SDS011;10114;50.970;4.962;2022-09-09T06:10:10;11.52;;;2.33;;
19903;SDS011;10114;50.970;4.962;2022-09-09T06:12:38;11.80;;;2.60;;
19903;SDS011;10114;50.970;4.962;2022-09-09T06:15:04;9.98;;;2.65;;
19903;SDS011;10114;50.970;4.962;2022-09-09T06:17:30;12.82;;;2.50;;
19903;SDS011;10114;50.970;4.962;2022-09-09T06:19:56;11.15;;;2.15;;
19903;SDS011;10114;50.970;4.962;2022-09-09T06:22:23;9.93;;;2.28;;
19903;SDS011;10114;50.970;4.962;2022-09-09T06:24:49;10.50;;;2.50;;
19903;SDS011;10114;50.970;4.962;2022-09-09T06:27:16;11.50;;;2.13;;
19903;SDS011;10114;50.970;4.962;2022-09-09T06:29:42;13.45;;;2.97;;
19903;SDS011;10114;50.970;4.962;2022-09-09T06:32:08;8.35;;;1.90;;
19903;SDS011;10114;50.970;4.962;2022-09-09T06:34:34;9.40;;;2.08;;
19903;SDS011;10114;50.970;4.962;2022-09-09T06:37:01;16.42;;;2.20;;
19903;SDS011;10114;50.970;4.962;2022-09-09T06:39:27;8.05;;;1.77;;
19903;SDS011;10114;50.970;4.962;2022-09-09T06:41:53;7.07;;;1.60;;
19903;SDS011;10114;50.970;4.962;2022-09-09T06:44:19;14.77;;;2.10;;
19903;SDS011;10114;50.970;4.962;2022-09-09T06:46:45;12.68;;;2.13;;
19903;SDS011;10114;50.970;4.962;2022-09-09T06:49:12;12.18;;;1.90;;
19903;SDS011;10114;50.970;4.962;2022-09-09T06:51:39;10.43;;;1.98;;
19903;SDS011;10114;50.970;4.962;2022-09-09T06:54:08;8.82;;;1.58;;
19903;SDS011;10114;50.970;4.962;2022-09-09T06:56:35;11.13;;;2.20;;
19903;SDS011;10114;50.970;4.962;2022-09-09T06:59:05;8.25;;;1.70;;
19903;SDS011;10114;50.970;4.962;2022-09-09T07:01:38;7.07;;;1.73;;
19903;SDS011;10114;50.970;4.962;2022-09-09T07:04:08;7.90;;;1.83;;
19903;SDS011;10114;50.970;4.962;2022-09-09T07:06:36;9.88;;;1.60;;
19903;SDS011;10114;50.970;4.962;2022-09-09T07:09:04;12.50;;;1.85;;
19903;SDS011;10114;50.970;4.962;2022-09-09T07:11:34;10.05;;;1.77;;
19903;SDS011;10114;50.970;4.962;2022-09-09T07:14:02;9.25;;;1.35;;
19903;SDS011;10114;50.970;4.962;2022-09-09T07:16:28;10.45;;;2.53;;
19903;SDS011;10114;50.970;4.962;2022-09-09T07:18:56;9.27;;;1.67;;
19903;SDS011;10114;50.970;4.962;2022-09-09T07:21:22;8.40;;;1.60;;
19903;SDS011;10114;50.970;4.962;2022-09-09T07:23:49;8.40;;;1.60;;
19903;SDS011;10114;50.970;4.962;2022-09-09T07:26:17;9.02;;;1.70;;
19903;SDS011;10114;50.970;4.962;2022-09-09T07:28:44;9.63;;;1.75;;
19903;SDS011;10114;50.970;4.962;2022-09-09T07:31:12;8.25;;;1.48;;
19903;SDS011;10114;50.970;4.962;2022-09-09T07:33:40;8.75;;;2.03;;
19903;SDS011;10114;50.970;4.962;2022-09-09T07:36:07;15.00;;;3.08;;
19903;SDS011;10114;50.970;4.962;2022-09-09T07:38:41;7.80;;;1.50;;
19903;SDS011;10114;50.970;4.962;2022-09-09T07:41:09;9.07;;;1.80;;
19903;SDS011;10114;50.970;4.962;2022-09-09T07:43:43;12.05;;;1.98;;
19903;SDS011;10114;50.970;4.962;2022-09-09T07:46:10;7.65;;;1.75;;
19903;SDS011;10114;50.970;4.962;2022-09-09T07:48:37;8.32;;;1.70;;
19903;SDS011;10114;50.970;4.962;2022-09-09T07:51:13;10.35;;;1.40;;
19903;SDS011;10114;50.970;4.962;2022-09-09T07:53:44;10.55;;;2.22;;
19903;SDS011;10114;50.970;4.962;2022-09-09T07:56:11;9.13;;;1.80;;
19903;SDS011;10114;50.970;4.962;2022-09-09T07:58:38;10.43;;;2.00;;
19903;SDS011;10114;50.970;4.962;2022-09-09T08:01:12;9.90;;;1.60;;
19903;SDS011;10114;50.970;4.962;2022-09-09T08:03:38;9.00;;;1.63;;
19903;SDS011;10114;50.970;4.962;2022-09-09T08:06:05;5.78;;;1.33;;
19903;SDS011;10114;50.970;4.962;2022-09-09T08:08:32;8.35;;;1.83;;
19903;SDS011;10114;50.970;4.962;2022-09-09T08:11:05;7.35;;;1.52;;
19903;SDS011;10114;50.970;4.962;2022-09-09T08:13:32;6.00;;;1.23;;
19903;SDS011;10114;50.970;4.962;2022-09-09T08:16:05;12.20;;;1.63;;
19903;SDS011;10114;50.970;4.962;2022-09-09T08:18:31;6.55;;;1.38;;
19903;SDS011;10114;50.970;4.962;2022-09-09T08:20:58;7.47;;;1.45;;
19903;SDS011;10114;50.970;4.962;2022-09-09T08:23:25;8.82;;;1.67;;
19903;SDS011;10114;50.970;4.962;2022-09-09T08:25:51;12.45;;;1.52;;
19903;SDS011;10114;50.970;4.962;2022-09-09T08:28:17;14.35;;;3.00;;
19903;SDS011;10114;50.970;4.962;2022-09-09T08:30:43;12.15;;;1.80;;
19903;SDS011;10114;50.970;4.962;2022-09-09T08:33:09;9.52;;;1.23;;
19903;SDS011;10114;50.970;4.962;2022-09-09T08:35:35;9.50;;;1.58;;
19903;SDS011;10114;50.970;4.962;2022-09-09T08:38:01;8.13;;;1.40;;
19903;SDS011;10114;50.970;4.962;2022-09-09T08:40:28;12.50;;;2.03;;
19903;SDS011;10114;50.970;4.962;2022-09-09T08:42:56;10.15;;;1.92;;
19903;SDS011;10114;50.970;4.962;2022-09-09T08:50:37;8.35;;;1.63;;
19903;SDS011;10114;50.970;4.962;2022-09-09T08:57:58;5.70;;;1.58;;
19903;SDS011;10114;50.970;4.962;2022-09-09T09:00:29;10.77;;;1.65;;
19903;SDS011;10114;50.970;4.962;2022-09-09T09:05:36;6.68;;;1.45;;
19903;SDS011;10114;50.970;4.962;2022-09-09T09:08:16;6.15;;;1.05;;
19903;SDS011;10114;50.970;4.962;2022-09-09T09:10:50;10.23;;;1.50;;
19903;SDS011;10114;50.970;4.962;2022-09-09T09:13:20;8.77;;;2.00;;
19903;SDS011;10114;50.970;4.962;2022-09-09T09:15:52;8.32;;;1.20;;
19903;SDS011;10114;50.970;4.962;2022-09-09T09:18:19;8.43;;;1.40;;
19903;SDS011;10114;50.970;4.962;2022-09-09T09:23:24;9.40;;;2.10;;
19903;SDS011;10114;50.970;4.962;2022-09-09T09:25:52;9.43;;;1.83;;
19903;SDS011;10114;50.970;4.962;2022-09-09T09:28:24;10.40;;;1.70;;
19903;SDS011;10114;50.970;4.962;2022-09-09T09:31:03;8.57;;;1.80;;
19903;SDS011;10114;50.970;4.962;2022-09-09T09:33:51;9.15;;;2.15;;
19903;SDS011;10114;50.970;4.962;2022-09-09T09:36:18;7.88;;;2.10;;
19903;SDS011;10114;50.970;4.962;2022-09-09T09:43:56;11.57;;;2.10;;
19903;SDS011;10114;50.970;4.962;2022-09-09T09:46:23;11.48;;;2.25;;
19903;SDS011;10114;50.970;4.962;2022-09-09T09:49:03;9.68;;;2.22;;
19903;SDS011;10114;50.970;4.962;2022-09-09T09:51:31;12.98;;;2.22;;
19903;SDS011;10114;50.970;4.962;2022-09-09T09:56:49;8.48;;;2.13;;
19903;SDS011;10114;50.970;4.962;2022-09-09T09:59:23;9.32;;;1.80;;
19903;SDS011;10114;50.970;4.962;2022-09-09T10:02:15;11.45;;;1.92;;
19903;SDS011;10114;50.970;4.962;2022-09-09T10:04:41;9.57;;;2.10;;
19903;SDS011;10114;50.970;4.962;2022-09-09T10:07:11;7.03;;;1.70;;
19903;SDS011;10114;50.970;4.962;2022-09-09T10:09:37;7.85;;;2.25;;
19903;SDS011;10114;50.970;4.962;2022-09-09T10:14:45;11.80;;;2.30;;
19903;SDS011;10114;50.970;4.962;2022-09-09T10:20:41;9.43;;;1.95;;
19903;SDS011;10114;50.970;4.962;2022-09-09T10:22:38;9.63;;;2.13;;
19903;SDS011;10114;50.970;4.962;2022-09-09T10:30:06;10.60;;;2.45;;
19903;SDS011;10114;50.970;4.962;2022-09-09T10:35:09;11.70;;;2.25;;
19903;SDS011;10114;50.970;4.962;2022-09-09T10:37:55;5.80;;;1.73;;
19903;SDS011;10114;50.970;4.962;2022-09-09T10:40:38;7.30;;;1.70;;
19903;SDS011;10114;50.970;4.962;2022-09-09T10:48:24;9.60;;;2.15;;
19903;SDS011;10114;50.970;4.962;2022-09-09T10:56:08;7.93;;;1.77;;
19903;SDS011;10114;50.970;4.962;2022-09-09T10:58:43;8.20;;;1.95;;
19903;SDS011;10114;50.970;4.962;2022-09-09T11:01:14;7.05;;;1.50;;
19903;SDS011;10114;50.970;4.962;2022-09-09T11:03:41;8.35;;;1.85;;
19903;SDS011;10114;50.970;4.962;2022-09-09T11:06:17;5.80;;;2.00;;
19903;SDS011;10114;50.970;4.962;2022-09-09T11:08:44;9.98;;;1.75;;
19903;SDS011;10114;50.970;4.962;2022-09-09T11:11:19;7.20;;;2.17;;
19903;SDS011;10114;50.970;4.962;2022-09-09T11:16:28;8.00;;;1.80;;
19903;SDS011;10114;50.970;4.962;2022-09-09T11:19:01;10.20;;;2.13;;
19903;SDS011;10114;50.970;4.962;2022-09-09T11:21:33;8.50;;;2.10;;
19903;SDS011;10114;50.970;4.962;2022-09-09T11:24:03;9.23;;;2.13;;
19903;SDS011;10114;50.970;4.962;2022-09-09T11:26:31;11.00;;;2.33;;
19903;SDS011;10114;50.970;4.962;2022-09-09T11:31:38;10.00;;;2.42;;
19903;SDS011;10114;50.970;4.962;2022-09-09T11:34:19;7.95;;;2.00;;
19903;SDS011;10114;50.970;4.962;2022-09-09T11:44:40;8.40;;;1.83;;
19903;SDS011;10114;50.970;4.962;2022-09-09T11:52:46;4.45;;;1.20;;
19903;SDS011;10114;50.970;4.962;2022-09-09T11:55:29;8.90;;;1.50;;
19903;SDS011;10114;50.970;4.962;2022-09-09T11:58:01;7.53;;;1.35;;
19903;SDS011;10114;50.970;4.962;2022-09-09T12:00:38;6.45;;;1.50;;
19903;SDS011;10114;50.970;4.962;2022-09-09T12:03:05;5.30;;;1.20;;
19903;SDS011;10114;50.970;4.962;2022-09-09T12:05:49;7.00;;;1.27;;
19903;SDS011;10114;50.970;4.962;2022-09-09T12:08:16;7.70;;;1.73;;
19903;SDS011;10114;50.970;4.962;2022-09-09T12:10:52;5.97;;;1.50;;
19903;SDS011;10114;50.970;4.962;2022-09-09T12:13:23;5.88;;;1.15;;
19903;SDS011;10114;50.970;4.962;2022-09-09T12:15:50;7.43;;;0.98;;
19903;SDS011;10114;50.970;4.962;2022-09-09T12:18:22;6.28;;;1.30;;
19903;SDS011;10114;50.970;4.962;2022-09-09T12:23:27;5.25;;;0.98;;
19903;SDS011;10114;50.970;4.962;2022-09-09T12:33:43;5.97;;;1.08;;
19903;SDS011;10114;50.970;4.962;2022-09-09T12:36:21;7.90;;;1.67;;
19903;SDS011;10114;50.970;4.962;2022-09-09T12:38:49;5.68;;;1.20;;
19903;SDS011;10114;50.970;4.962;2022-09-09T12:41:23;7.55;;;1.50;;
19903;SDS011;10114;50.970;4.962;2022-09-09T12:43:50;4.68;;;1.10;;
19903;SDS011;10114;50.970;4.962;2022-09-09T12:46:29;6.45;;;1.20;;
19903;SDS011;10114;50.970;4.962;2022-09-09T12:48:58;7.15;;;1.10;;
19903;SDS011;10114;50.970;4.962;2022-09-09T12:51:26;6.10;;;1.20;;
19903;SDS011;10114;50.970;4.962;2022-09-09T12:53:53;5.95;;;1.10;;
19903;SDS011;10114;50.970;4.962;2022-09-09T12:56:20;10.10;;;1.45;;
19903;SDS011;10114;50.970;4.962;2022-09-09T12:58:48;9.52;;;2.08;;
19903;SDS011;10114;50.970;4.962;2022-09-09T13:01:23;4.05;;;1.10;;
19903;SDS011;10114;50.970;4.962;2022-09-09T13:03:50;6.53;;;1.17;;
19903;SDS011;10114;50.970;4.962;2022-09-09T13:06:26;6.80;;;1.35;;
19903;SDS011;10114;50.970;4.962;2022-09-09T13:08:53;5.25;;;1.13;;
19903;SDS011;10114;50.970;4.962;2022-09-09T13:11:21;6.53;;;1.25;;
19903;SDS011;10114;50.970;4.962;2022-09-09T13:13:52;6.80;;;1.25;;
19903;SDS011;10114;50.970;4.962;2022-09-09T13:16:22;6.28;;;1.20;;
19903;SDS011;10114;50.970;4.962;2022-09-09T13:18:50;6.55;;;1.42;;
19903;SDS011;10114;50.970;4.962;2022-09-09T13:21:17;8.43;;;1.13;;
19903;SDS011;10114;50.970;4.962;2022-09-09T13:23:48;3.53;;;0.90;;
19903;SDS011;10114;50.970;4.962;2022-09-09T13:28:49;6.47;;;1.10;;
19903;SDS011;10114;50.970;4.962;2022-09-09T13:31:19;5.20;;;1.13;;
19903;SDS011;10114;50.970;4.962;2022-09-09T13:33:46;7.40;;;1.23;;
19903;SDS011;10114;50.970;4.962;2022-09-09T13:36:12;10.15;;;1.80;;
19903;SDS011;10114;50.970;4.962;2022-09-09T13:41:36;6.65;;;1.45;;
19903;SDS011;10114;50.970;4.962;2022-09-09T13:44:04;4.32;;;0.75;;
19903;SDS011;10114;50.970;4.962;2022-09-09T13:49:01;7.18;;;1.13;;
19903;SDS011;10114;50.970;4.962;2022-09-09T13:51:35;6.85;;;1.00;;
19903;SDS011;10114;50.970;4.962;2022-09-09T13:54:02;6.45;;;1.20;;
19903;SDS011;10114;50.970;4.962;2022-09-09T13:56:30;3.85;;;0.88;;
19903;SDS011;10114;50.970;4.962;2022-09-09T13:58:56;5.85;;;1.10;;
19903;SDS011;10114;50.970;4.962;2022-09-09T14:01:23;6.28;;;1.35;;
19903;SDS011;10114;50.970;4.962;2022-09-09T14:03:49;3.40;;;0.80;;
19903;SDS011;10114;50.970;4.962;2022-09-09T14:06:15;3.97;;;0.93;;
19903;SDS011;10114;50.970;4.962;2022-09-09T14:08:43;2.38;;;0.50;;
19903;SDS011;10114;50.970;4.962;2022-09-09T14:11:11;4.00;;;1.13;;
19903;SDS011;10114;50.970;4.962;2022-09-09T14:13:38;4.35;;;0.80;;
19903;SDS011;10114;50.970;4.962;2022-09-09T14:16:04;2.95;;;0.73;;
19903;SDS011;10114;50.970;4.962;2022-09-09T14:18:30;5.15;;;1.02;;
19903;SDS011;10114;50.970;4.962;2022-09-09T14:20:56;4.43;;;1.00;;
19903;SDS011;10114;50.970;4.962;2022-09-09T14:23:23;5.85;;;1.10;;
19903;SDS011;10114;50.970;4.962;2022-09-09T14:25:50;3.15;;;1.00;;
19903;SDS011;10114;50.970;4.962;2022-09-09T14:28:16;5.20;;;0.98;;
19903;SDS011;10114;50.970;4.962;2022-09-09T14:30:42;3.03;;;0.90;;
19903;SDS011;10114;50.970;4.962;2022-09-09T14:33:11;2.92;;;0.80;;
19903;SDS011;10114;50.970;4.962;2022-09-09T14:35:37;7.68;;;0.98;;
19903;SDS011;10114;50.970;4.962;2022-09-09T14:38:05;4.35;;;0.80;;
19903;SDS011;10114;50.970;4.962;2022-09-09T14:40:31;5.28;;;0.98;;
19903;SDS011;10114;50.970;4.962;2022-09-09T14:42:57;3.47;;;0.85;;
19903;SDS011;10114;50.970;4.962;2022-09-09T14:45:24;4.25;;;0.60;;
19903;SDS011;10114;50.970;4.962;2022-09-09T14:47:51;2.53;;;0.70;;
19903;SDS011;10114;50.970;4.962;2022-09-09T14:50:18;3.50;;;0.70;;
19903;SDS011;10114;50.970;4.962;2022-09-09T14:52:44;4.03;;;0.98;;
19903;SDS011;10114;50.970;4.962;2022-09-09T14:55:10;8.95;;;1.85;;
19903;SDS011;10114;50.970;4.962;2022-09-09T14:57:37;5.95;;;1.20;;
19903;SDS011;10114;50.970;4.962;2022-09-09T15:00:04;3.65;;;0.60;;
19903;SDS011;10114;50.970;4.962;2022-09-09T15:02:31;9.25;;;4.72;;
19903;SDS011;10114;50.970;4.962;2022-09-09T15:04:57;6.70;;;2.38;;
19903;SDS011;10114;50.970;4.962;2022-09-09T15:07:23;5.03;;;1.45;;
19903;SDS011;10114;50.970;4.962;2022-09-09T15:09:50;5.45;;;0.95;;
19903;SDS011;10114;50.970;4.962;2022-09-09T15:12:17;6.15;;;1.23;;
19903;SDS011;10114;50.970;4.962;2022-09-09T15:14:46;2.22;;;0.80;;
19903;SDS011;10114;50.970;4.962;2022-09-09T15:17:13;3.55;;;0.90;;
19903;SDS011;10114;50.970;4.962;2022-09-09T15:19:39;3.95;;;1.00;;
19903;SDS011;10114;50.970;4.962;2022-09-09T15:22:07;2.63;;;0.80;;
19903;SDS011;10114;50.970;4.962;2022-09-09T15:24:33;2.70;;;1.00;;
19903;SDS011;10114;50.970;4.962;2022-09-09T15:27:00;3.85;;;1.00;;
19903;SDS011;10114;50.970;4.962;2022-09-09T15:29:26;5.70;;;0.95;;
19903;SDS011;10114;50.970;4.962;2022-09-09T15:31:55;5.15;;;1.13;;
19903;SDS011;10114;50.970;4.962;2022-09-09T15:34:22;9.85;;;2.10;;
19903;SDS011;10114;50.970;4.962;2022-09-09T15:36:48;5.32;;;1.00;;
19903;SDS011;10114;50.970;4.962;2022-09-09T15:39:15;5.60;;;1.45;;
19903;SDS011;10114;50.970;4.962;2022-09-09T15:41:42;5.28;;;1.33;;
19903;SDS011;10114;50.970;4.962;2022-09-09T15:44:09;3.70;;;0.93;;
19903;SDS011;10114;50.970;4.962;2022-09-09T15:46:44;4.53;;;0.90;;
19903;SDS011;10114;50.970;4.962;2022-09-09T15:49:14;9.07;;;1.63;;
19903;SDS011;10114;50.970;4.962;2022-09-09T15:51:43;3.05;;;1.08;;
19903;SDS011;10114;50.970;4.962;2022-09-09T15:54:14;3.47;;;1.17;;
19903;SDS011;10114;50.970;4.962;2022-09-09T15:56:42;5.15;;;0.88;;
19903;SDS011;10114;50.970;4.962;2022-09-09T15:59:08;7.72;;;0.90;;
19903;SDS011;10114;50.970;4.962;2022-09-09T16:01:34;6.57;;;1.30;;
19903;SDS011;10114;50.970;4.962;2022-09-09T16:04:00;3.22;;;0.77;;
19903;SDS011;10114;50.970;4.962;2022-09-09T16:06:27;4.00;;;0.90;;
19903;SDS011;10114;50.970;4.962;2022-09-09T16:08:54;5.18;;;1.10;;
19903;SDS011;10114;50.970;4.962;2022-09-09T16:11:22;3.85;;;0.90;;
19903;SDS011;10114;50.970;4.962;2022-09-09T16:13:49;6.60;;;1.20;;
19903;SDS011;10114;50.970;4.962;2022-09-09T16:16:16;4.65;;;0.82;;
19903;SDS011;10114;50.970;4.962;2022-09-09T16:18:43;6.43;;;1.20;;
19903;SDS011;10114;50.970;4.962;2022-09-09T16:21:23;5.97;;;1.23;;
19903;SDS011;10114;50.970;4.962;2022-09-09T16:23:52;4.18;;;0.90;;
19903;SDS011;10114;50.970;4.962;2022-09-09T16:26:19;4.95;;;0.88;;
19903;SDS011;10114;50.970;4.962;2022-09-09T16:28:45;3.80;;;0.90;;
19903;SDS011;10114;50.970;4.962;2022-09-09T16:31:13;6.13;;;0.95;;
19903;SDS011;10114;50.970;4.962;2022-09-09T16:33:40;4.88;;;1.08;;
19903;SDS011;10114;50.970;4.962;2022-09-09T16:36:07;4.75;;;0.80;;
19903;SDS011;10114;50.970;4.962;2022-09-09T16:38:33;9.95;;;1.08;;
19903;SDS011;10114;50.970;4.962;2022-09-09T16:41:00;7.03;;;0.98;;
19903;SDS011;10114;50.970;4.962;2022-09-09T16:43:26;4.15;;;1.00;;
19903;SDS011;10114;50.970;4.962;2022-09-09T16:45:52;4.88;;;1.02;;
19903;SDS011;10114;50.970;4.962;2022-09-09T16:48:18;6.03;;;0.93;;
19903;SDS011;10114;50.970;4.962;2022-09-09T16:50:45;4.03;;;1.20;;
19903;SDS011;10114;50.970;4.962;2022-09-09T16:53:11;2.40;;;1.15;;
19903;SDS011;10114;50.970;4.962;2022-09-09T16:55:40;6.90;;;1.10;;